Time;durP1;ratioP1;P1;durP2;ratioP2;P2;SDS_P1;SDS_P2;PMS_P1;PMS_P2;Temp;Humidity;BMP_temperature;BMP_pressure;BME280_temperature;BME280_humidity;BME280_pressure;Samples;Min_cycle;Max_cycle;Signal;HPM_P1;HPM_P2
2024/04/01 00:02:23;;;;;;;21.02;12.93;;;;;;;-146.27;92.86;42066.97;5088907;28;20467;-74
2024/04/01 00:04:49;;;;;;;18.58;12.00;;;;;;;-146.27;92.63;42078.88;5109846;28;20019;-75
2024/04/01 00:07:14;;;;;;;18.85;11.23;;;;;;;-146.27;92.48;42090.81;5101352;28;20046;-74
2024/04/01 00:09:40;;;;;;;15.63;11.45;;;;;;;-146.27;92.70;42080.88;5093735;28;20101;-75
2024/04/01 00:12:06;;;;;;;20.10;11.07;;;;;;;-146.27;92.42;42118.66;5105966;28;20529;-74
2024/04/01 00:14:31;;;;;;;17.13;11.20;;;;;;;-146.27;92.17;42142.53;5101908;28;20047;-68
2024/04/01 00:16:56;;;;;;;23.13;9.77;;;;;;;-146.27;92.47;42140.53;5073246;28;20028;-68
2024/04/01 00:19:22;;;;;;;19.13;10.40;;;;;;;-146.27;92.68;42102.75;5089570;28;20027;-68
2024/04/01 00:21:47;;;;;;;16.02;11.43;;;;;;;-146.27;92.92;42070.94;5090436;28;20059;-68
2024/04/01 00:24:13;;;;;;;16.95;10.77;;;;;;;-146.27;92.69;42098.78;5103120;28;20031;-67
2024/04/01 00:26:38;;;;;;;17.90;10.23;;;;;;;-146.27;92.17;42136.56;5094449;28;20040;-68
2024/04/01 00:29:03;;;;;;;18.77;11.00;;;;;;;-146.27;92.34;42130.59;5088027;28;20385;-67
2024/04/01 00:31:32;;;;;;;17.52;9.77;;;;;;;-146.27;92.74;42130.59;5094931;28;20053;-67
2024/04/01 00:33:57;;;;;;;15.73;10.57;;;;;;;-146.27;92.72;42074.91;5080726;28;20444;-70
2024/04/01 00:36:23;;;;;;;21.65;10.40;;;;;;;-146.27;92.60;42090.81;5091009;28;20036;-68
2024/04/01 00:38:55;;;;;;;19.50;9.95;;;;;;;-146.27;92.62;42074.91;5083061;28;20028;-68
2024/04/01 00:41:21;;;;;;;16.90;10.30;;;;;;;-146.27;92.60;42084.84;5089860;28;20027;-67
2024/04/01 00:43:47;;;;;;;15.45;9.70;;;;;;;-146.27;92.39;42090.81;5096019;28;20042;-68
2024/04/01 00:46:12;;;;;;;16.02;10.35;;;;;;;-146.27;92.62;42136.56;5094779;28;20028;-67
2024/04/01 00:48:38;;;;;;;15.85;9.52;;;;;;;-146.27;92.42;42156.44;5087568;28;20020;-68
2024/04/01 00:51:05;;;;;;;15.27;9.32;;;;;;;-146.27;92.33;42162.41;5085471;28;20132;-68
2024/04/01 00:53:31;;;;;;;14.82;9.57;;;;;;;-146.27;92.37;42106.72;5087798;28;20115;-67
2024/04/01 00:55:56;;;;;;;15.18;9.60;;;;;;;-146.27;92.47;42110.72;5075488;28;20112;-69
2024/04/01 00:58:22;;;;;;;17.38;9.38;;;;;;;-146.27;92.68;42066.97;5097955;28;20044;-68
2024/04/01 01:00:49;;;;;;;17.20;10.00;;;;;;;-146.27;92.74;42072.94;5089181;28;20525;-68
2024/04/01 01:03:15;;;;;;;16.27;9.65;;;;;;;-146.27;92.90;42086.84;5082636;28;20020;-68
2024/04/01 01:05:40;;;;;;;18.58;9.85;;;;;;;-146.27;92.92;42051.06;5095368;28;20157;-68
2024/04/01 01:08:06;;;;;;;14.25;10.02;;;;;;;-146.27;92.87;42068.94;5086953;28;20024;-68
2024/04/01 01:10:33;;;;;;;14.95;8.80;;;;;;;-146.27;92.35;42088.84;5089449;28;20032;-68
2024/04/01 01:12:59;;;;;;;19.40;9.85;;;;;;;-146.27;92.52;42088.84;5082681;28;20522;-68
2024/04/01 01:15:26;;;;;;;16.65;10.13;;;;;;;-146.27;92.44;42090.81;5081743;28;20043;-68
2024/04/01 01:17:52;;;;;;;14.02;8.90;;;;;;;-146.27;92.39;42082.88;5072859;28;20551;-68
2024/04/01 01:20:17;;;;;;;17.48;9.68;;;;;;;-146.27;92.38;42132.59;5082016;28;20031;-68
2024/04/01 01:22:43;;;;;;;14.25;9.25;;;;;;;-146.27;92.21;42138.53;5074297;28;20029;-68
2024/04/01 01:25:09;;;;;;;15.73;9.45;;;;;;;-146.27;92.23;42110.72;5110105;28;20031;-68
2024/04/01 01:27:35;;;;;;;21.38;11.15;;;;;;;-146.27;91.89;42174.34;5088468;28;20044;-67
2024/04/01 01:30:04;;;;;;;17.95;9.35;;;;;;;-146.27;91.98;42198.19;5085553;28;20078;-67
2024/04/01 01:32:33;;;;;;;19.33;9.77;;;;;;;-146.27;91.90;42198.19;5079721;28;20385;-67
2024/04/01 01:35:00;;;;;;;16.90;9.18;;;;;;;-146.27;92.18;42218.09;5082813;28;20391;-68
2024/04/01 01:37:25;;;;;;;14.68;8.43;;;;;;;-146.27;91.94;42214.13;5094039;28;20043;-68
2024/04/01 01:39:50;;;;;;;15.48;8.30;;;;;;;-146.27;91.60;42234.00;5110541;28;20016;-68
2024/04/01 01:42:16;;;;;;;15.68;9.13;;;;;;;-146.27;91.87;42253.88;5091749;28;20374;-67
2024/04/01 01:44:41;;;;;;;12.52;8.15;;;;;;;-146.27;91.95;42218.09;5087421;28;20058;-67
2024/04/01 01:47:06;;;;;;;17.42;8.00;;;;;;;-146.27;92.06;42230.03;5080765;28;20035;-67
2024/04/01 01:49:32;;;;;;;14.32;8.48;;;;;;;-146.27;91.99;42245.94;5071750;28;20032;-67
2024/04/01 01:51:57;;;;;;;11.70;8.60;;;;;;;-146.27;92.04;42239.97;5089910;28;20422;-68
2024/04/01 01:54:23;;;;;;;12.68;8.23;;;;;;;-146.27;91.87;42259.84;5098649;28;20537;-67
2024/04/01 01:56:48;;;;;;;15.65;8.05;;;;;;;-146.27;91.69;42297.63;5087252;28;20122;-67
2024/04/01 01:59:13;;;;;;;12.80;8.52;;;;;;;-146.27;91.98;42265.81;5075597;28;20483;-68
2024/04/01 02:01:39;;;;;;;14.68;8.82;;;;;;;-146.27;91.84;42267.81;5100115;28;20023;-67
2024/04/01 02:04:04;;;;;;;17.08;8.77;;;;;;;-146.27;91.64;42317.53;5089221;28;20033;-68
2024/04/01 02:06:30;;;;;;;14.98;8.40;;;;;;;-146.27;91.56;42335.41;5085770;28;20488;-68
2024/04/01 02:08:55;;;;;;;12.23;8.75;;;;;;;-146.27;91.59;42359.28;5074263;28;20028;-68
2024/04/01 02:11:21;;;;;;;14.20;7.95;;;;;;;-146.27;91.39;42361.28;5089315;28;20399;-67
2024/04/01 02:13:46;;;;;;;12.40;7.55;;;;;;;-146.27;91.62;42401.06;5090801;28;20031;-67
2024/04/01 02:16:11;;;;;;;12.82;8.60;;;;;;;-146.27;91.47;42399.06;5082060;28;20799;-67
2024/04/01 02:18:38;;;;;;;14.90;7.75;;;;;;;-146.27;91.71;42393.09;5073166;28;20057;-67
2024/04/01 02:21:03;;;;;;;14.75;8.55;;;;;;;-146.27;92.23;42359.28;5080419;28;20035;-67
2024/04/01 02:23:31;;;;;;;12.50;8.30;;;;;;;-146.27;92.23;42357.28;5088690;28;20024;-67
2024/04/01 02:26:01;;;;;;;14.35;9.35;;;;;;;-146.27;92.45;42301.63;5096556;28;20567;-67
2024/04/01 02:28:27;;;;;;;13.38;8.55;;;;;;;-146.27;92.42;42269.78;5090398;28;20081;-67
2024/04/01 02:30:52;;;;;;;15.73;8.77;;;;;;;-146.27;92.04;42323.50;5082392;28;20453;-68
2024/04/01 02:33:18;;;;;;;15.18;7.30;;;;;;;-146.27;92.20;42345.38;5089394;28;20487;-67
2024/04/01 02:35:43;;;;;;;17.13;7.78;;;;;;;-146.27;92.28;42323.50;5080607;28;20035;-74
2024/04/01 02:38:09;;;;;;;11.25;7.55;;;;;;;-146.27;92.25;42321.50;5076923;28;20432;-74
2024/04/01 02:40:34;;;;;;;13.18;6.85;;;;;;;-146.27;92.34;42309.56;5088578;28;20024;-74
2024/04/01 02:42:59;;;;;;;12.45;6.82;;;;;;;-146.27;92.32;42265.81;5077416;28;20032;-75
2024/04/01 02:45:24;;;;;;;11.90;7.10;;;;;;;-146.27;92.42;42265.81;5089431;28;20027;-74
2024/04/01 02:47:50;;;;;;;13.18;7.97;;;;;;;-146.27;92.54;42271.78;5083768;28;20082;-75
2024/04/01 02:50:15;;;;;;;12.43;7.22;;;;;;;-146.27;92.23;42269.78;5091707;28;20032;-74
2024/04/01 02:52:41;;;;;;;12.98;7.07;;;;;;;-146.27;92.00;42321.50;5060349;28;20024;-75
2024/04/01 02:55:09;;;;;;;10.20;6.75;;;;;;;-146.27;92.23;42285.72;5084296;28;20614;-75
2024/04/01 02:57:35;;;;;;;13.35;8.15;;;;;;;-146.27;92.47;42234.00;5077109;28;20467;-74
2024/04/01 03:00:01;;;;;;;10.75;7.32;;;;;;;-146.27;92.59;42230.03;5102319;28;20008;-74
2024/04/01 03:02:27;;;;;;;14.38;8.02;;;;;;;-146.27;92.71;42212.13;5084034;28;20059;-75
2024/04/01 03:04:52;;;;;;;9.50;6.90;;;;;;;-146.27;92.69;42234.00;5095620;28;20022;-76
2024/04/01 03:07:18;;;;;;;9.10;7.07;;;;;;;-146.27;92.40;42204.16;5074676;28;20476;-73
2024/04/01 03:09:45;;;;;;;13.40;7.72;;;;;;;-146.27;92.45;42241.97;5072533;28;20469;-75
2024/04/01 03:12:11;;;;;;;19.45;9.27;;;;;;;-146.27;92.45;42208.16;5072312;28;20028;-75
2024/04/01 03:14:36;;;;;;;13.32;8.07;;;;;;;-146.27;92.01;42243.94;5075117;28;20028;-74
2024/04/01 03:17:02;;;;;;;11.93;8.60;;;;;;;-146.27;92.04;42236.00;5086377;28;20024;-75
2024/04/01 03:19:28;;;;;;;11.63;7.70;;;;;;;-146.27;92.03;42245.94;5081067;28;20458;-75
2024/04/01 03:21:53;;;;;;;21.92;10.00;;;;;;;-146.27;92.29;42269.78;5062246;28;20027;-74
2024/04/01 03:24:18;;;;;;;10.43;7.28;;;;;;;-146.27;92.18;42194.22;5071956;28;20025;-75
2024/04/01 03:26:46;;;;;;;12.50;8.27;;;;;;;-146.27;92.23;42220.06;5085388;28;20048;-74
2024/04/01 03:29:11;;;;;;;12.77;8.43;;;;;;;-146.27;92.44;42224.06;5087932;28;20031;-73
2024/04/01 03:31:37;;;;;;;15.20;8.95;;;;;;;-146.27;92.33;42214.13;5090025;28;20031;-75
2024/04/01 03:34:02;;;;;;;15.68;8.45;;;;;;;-146.27;92.29;42172.34;5078224;28;20486;-76
2024/04/01 03:36:27;;;;;;;16.13;8.52;;;;;;;-146.27;92.05;42237.97;5084296;28;20140;-74
2024/04/01 03:38:53;;;;;;;13.57;7.90;;;;;;;-146.27;91.91;42253.88;5079324;28;20016;-75
2024/04/01 03:41:18;;;;;;;16.90;9.07;;;;;;;-146.27;91.98;42226.03;5087593;28;20095;-76
2024/04/01 03:43:44;;;;;;;14.48;8.50;;;;;;;-146.27;92.07;42253.88;5072823;28;20245;-73
2024/04/01 03:46:09;;;;;;;12.07;8.40;;;;;;;-146.27;91.93;42243.94;5073362;28;20024;-67
2024/04/01 03:48:34;;;;;;;10.85;8.52;;;;;;;-146.27;92.03;42224.06;5083888;28;20039;-67
2024/04/01 03:51:00;;;;;;;11.93;7.97;;;;;;;-146.27;92.09;42245.94;5090774;28;20488;-69
2024/04/01 03:53:26;;;;;;;16.65;8.68;;;;;;;-146.27;92.28;42218.09;5089522;28;20024;-67
2024/04/01 03:55:51;;;;;;;13.93;8.45;;;;;;;-146.27;92.23;42234.00;5085734;28;20032;-67
2024/04/01 03:58:16;;;;;;;14.90;8.90;;;;;;;-146.27;92.14;42212.13;5089225;28;20031;-68
2024/04/01 04:00:42;;;;;;;14.18;8.45;;;;;;;-146.27;92.22;42198.19;5096613;28;20034;-67
2024/04/01 04:03:08;;;;;;;12.13;8.63;;;;;;;-146.27;92.31;42190.25;5095854;28;20032;-67
2024/04/01 04:05:35;;;;;;;17.95;9.82;;;;;;;-146.27;92.27;42168.38;5101784;28;20077;-69
2024/04/01 04:08:01;;;;;;;15.30;8.65;;;;;;;-146.27;92.09;42190.25;5091457;28;20108;-69
2024/04/01 04:10:26;;;;;;;12.65;9.52;;;;;;;-146.27;92.24;42170.38;5090217;28;20111;-68
2024/04/01 04:12:51;;;;;;;12.20;7.97;;;;;;;-146.27;92.10;42166.38;5078370;28;20503;-69
2024/04/01 04:15:17;;;;;;;15.30;7.75;;;;;;;-146.27;92.23;42178.31;5089627;28;20024;-69
2024/04/01 04:17:43;;;;;;;11.52;6.93;;;;;;;-146.27;92.53;42202.19;5090628;28;20059;-67
2024/04/01 04:20:08;;;;;;;12.40;7.28;;;;;;;-146.27;92.44;42112.69;5090957;28;20040;-67
2024/04/01 04:22:33;;;;;;;11.90;7.32;;;;;;;-146.27;92.47;42138.53;5088813;28;20709;-67
2024/04/01 04:24:59;;;;;;;9.60;6.95;;;;;;;-146.27;92.82;42110.72;5091224;28;20043;-67
2024/04/01 04:27:24;;;;;;;9.32;6.65;;;;;;;-146.27;92.42;42114.69;5091183;28;20044;-68
2024/04/01 04:29:50;;;;;;;11.70;6.45;;;;;;;-146.27;92.23;42118.66;5087846;28;20036;-67
2024/04/01 04:32:15;;;;;;;11.98;7.45;;;;;;;-146.27;92.25;42092.81;5085249;28;20236;-67
2024/04/01 04:34:41;;;;;;;11.60;6.10;;;;;;;-146.27;91.96;42122.63;5071149;28;20028;-67
2024/04/01 04:37:07;;;;;;;12.93;7.30;;;;;;;-146.27;92.01;42126.63;5080361;28;20038;-67
2024/04/01 04:39:35;;;;;;;12.40;6.60;;;;;;;-146.27;91.92;42134.56;5074499;28;20035;-68
2024/04/01 04:42:01;;;;;;;12.27;7.20;;;;;;;-146.27;91.98;42116.66;5070596;28;20563;-67
2024/04/01 04:44:27;;;;;;;12.27;6.53;;;;;;;-146.27;91.99;42142.53;5089555;28;20076;-68
2024/04/01 04:46:52;;;;;;;11.15;7.63;;;;;;;-146.27;91.96;42142.53;5089722;28;20397;-68
2024/04/01 04:49:18;;;;;;;17.40;9.85;;;;;;;-146.27;92.05;42136.56;5072444;28;20038;-68
2024/04/01 04:51:44;;;;;;;18.42;9.20;;;;;;;-146.27;91.98;42132.59;5087273;28;20020;-67
2024/04/01 04:54:09;;;;;;;22.88;9.38;;;;;;;-146.27;91.91;42132.59;5086539;28;20051;-75
2024/04/01 04:56:35;;;;;;;13.40;8.32;;;;;;;-146.27;92.12;42150.47;5088904;28;20483;-75
2024/04/01 04:59:01;;;;;;;9.35;6.97;;;;;;;-146.27;92.01;42146.50;5097053;28;20050;-75
2024/04/01 05:01:26;;;;;;;14.90;7.72;;;;;;;-146.27;91.90;42158.44;5098277;28;20024;-74
2024/04/01 05:03:53;;;;;;;13.68;7.25;;;;;;;-146.27;91.74;42142.53;5087167;28;20024;-74
2024/04/01 05:06:18;;;;;;;12.52;7.10;;;;;;;-146.27;91.74;42172.34;5090794;28;20115;-75
2024/04/01 05:08:45;;;;;;;12.70;8.20;;;;;;;-146.27;91.75;42190.25;5068561;28;20067;-76
2024/04/01 05:11:11;;;;;;;11.32;7.03;;;;;;;-146.27;91.63;42170.38;5084781;28;20031;-75
2024/04/01 05:13:36;;;;;;;13.60;8.70;;;;;;;-146.27;91.79;42170.38;5094124;28;20046;-75
2024/04/01 05:16:06;;;;;;;12.77;8.68;;;;;;;-146.27;91.57;42176.34;5092461;28;20024;-74
2024/04/01 05:18:34;;;;;;;16.95;9.07;;;;;;;-146.27;91.85;42174.34;5087878;28;20076;-74
2024/04/01 05:21:01;;;;;;;14.75;8.40;;;;;;;-146.27;91.74;42150.47;5093888;28;20032;-75
2024/04/01 05:23:27;;;;;;;16.45;8.38;;;;;;;-146.27;91.81;42208.16;5080597;28;20080;-74
2024/04/01 05:25:52;;;;;;;14.00;8.52;;;;;;;-146.27;91.86;42192.25;5095084;28;20641;-75
2024/04/01 05:28:17;;;;;;;16.55;8.38;;;;;;;-146.27;91.81;42198.19;5080052;28;20051;-75
2024/04/01 05:30:43;;;;;;;12.45;8.18;;;;;;;-146.27;91.93;42226.03;5086951;28;20084;-75
2024/04/01 05:33:08;;;;;;;15.02;8.63;;;;;;;-146.27;91.79;42202.19;5096213;28;20043;-74
2024/04/01 05:35:37;;;;;;;13.77;8.90;;;;;;;-146.27;91.74;42228.03;5109857;28;20395;-74
2024/04/01 05:38:05;;;;;;;15.73;8.55;;;;;;;-146.27;91.97;42236.00;5084763;28;20077;-74
2024/04/01 05:40:31;;;;;;;15.10;8.68;;;;;;;-146.27;92.04;42198.19;5081455;28;20032;-75
2024/04/01 05:42:56;;;;;;;14.10;9.02;;;;;;;-146.27;91.80;42224.06;5087538;28;20024;-76
2024/04/01 05:45:22;;;;;;;17.88;9.55;;;;;;;-146.27;91.97;42269.78;5091795;28;20031;-75
2024/04/01 05:47:48;;;;;;;14.88;9.35;;;;;;;-146.27;92.12;42253.88;5098914;28;20028;-77
2024/04/01 05:50:18;;;;;;;14.57;9.48;;;;;;;-146.27;92.86;42317.53;5078625;28;20112;-76
2024/04/01 05:52:44;;;;;;;20.30;10.43;;;;;;;-146.27;93.63;42341.38;5086932;28;20024;-76
2024/04/01 05:55:13;;;;;;;21.70;9.93;;;;;;;-146.27;93.07;42309.56;5089502;28;20848;-76
2024/04/01 05:57:39;;;;;;;16.38;10.90;;;;;;;-146.27;92.74;42357.28;5081060;28;20099;-75
2024/04/01 06:00:05;;;;;;;18.33;10.68;;;;;;;-146.27;92.68;42381.16;5081825;28;20027;-76
2024/04/01 06:02:31;;;;;;;15.20;10.63;;;;;;;-146.27;92.28;42389.13;5080103;28;20020;-76
2024/04/01 06:04:56;;;;;;;15.63;10.27;;;;;;;-146.27;92.16;42454.75;5089066;28;20026;-67
2024/04/01 06:07:22;;;;;;;14.15;10.43;;;;;;;-146.27;91.85;42452.75;5092662;28;20024;-66
2024/04/01 06:09:47;;;;;;;16.73;11.30;;;;;;;-146.27;91.77;42540.25;5089752;28;20107;-67
2024/04/01 06:12:13;;;;;;;16.05;10.85;;;;;;;-146.27;92.11;42591.97;5089767;28;20060;-66
2024/04/01 06:14:38;;;;;;;16.52;11.27;;;;;;;-146.27;91.90;42558.16;5094089;28;20056;-66
2024/04/01 06:17:03;;;;;;;18.98;11.23;;;;;;;-146.27;91.58;42625.78;5093241;28;20031;-66
2024/04/01 06:19:29;;;;;;;16.65;11.13;;;;;;;-146.27;91.54;42723.22;5093124;28;20012;-66
2024/04/01 06:21:54;;;;;;;13.50;10.48;;;;;;;-146.27;91.68;42743.13;5098661;28;20059;-67
2024/04/01 06:24:20;;;;;;;17.50;11.07;;;;;;;-146.27;91.59;42800.81;5090926;28;20025;-66
2024/04/01 06:26:45;;;;;;;15.25;10.70;;;;;;;-146.27;91.74;42749.09;5092807;28;20036;-65
2024/04/01 06:29:10;;;;;;;20.25;10.98;;;;;;;-146.27;91.26;42882.34;5097355;28;20027;-67
2024/04/01 06:31:36;;;;;;;18.15;11.10;;;;;;;-146.27;91.55;42828.66;5081149;28;20043;-67
2024/04/01 06:34:02;;;;;;;13.95;10.35;;;;;;;-146.27;91.84;42904.22;5095037;28;20046;-66
2024/04/01 06:36:27;;;;;;;17.20;11.25;;;;;;;-146.27;91.65;42946.00;5091207;28;20036;-67
2024/04/01 06:38:53;;;;;;;18.38;11.00;;;;;;;-146.27;91.50;42916.16;5086039;28;20017;-66
2024/04/01 06:41:18;;;;;;;15.13;10.20;;;;;;;-146.27;91.39;42963.91;5089606;28;20024;-67
2024/04/01 06:43:44;;;;;;;17.58;11.15;;;;;;;-146.27;91.35;42957.94;5087261;28;20435;-67
2024/04/01 06:46:09;;;;;;;15.65;11.40;;;;;;;-146.27;91.09;43005.66;5089030;28;20483;-68
2024/04/01 06:48:34;;;;;;;16.88;11.50;;;;;;;-146.27;91.58;42942.00;5090157;28;20073;-67
2024/04/01 06:51:00;;;;;;;14.80;10.88;;;;;;;-146.27;91.34;42969.84;5089311;28;20070;-67
2024/04/01 06:53:25;;;;;;;15.25;10.35;;;;;;;-146.27;91.54;42928.09;5096385;28;20126;-69
2024/04/01 06:55:51;;;;;;;14.10;10.00;;;;;;;-146.27;90.91;42973.84;5105521;28;20058;-66
2024/04/01 06:58:16;;;;;;;14.70;10.00;;;;;;;-146.27;91.03;43013.63;5092180;28;20024;-67
2024/04/01 07:00:41;;;;;;;15.43;10.52;;;;;;;-146.27;91.34;43029.53;5101336;28;20058;-67
2024/04/01 07:03:08;;;;;;;14.95;9.73;;;;;;;-146.27;90.70;42953.94;5098038;28;20043;-67
2024/04/01 07:05:34;;;;;;;13.70;9.23;;;;;;;-146.27;90.40;42942.00;5089836;28;20082;-67
2024/04/01 07:08:01;;;;;;;13.73;9.07;;;;;;;-146.27;90.80;42957.94;5112003;28;20107;-70
2024/04/01 07:10:27;;;;;;;13.13;9.88;;;;;;;-146.27;90.32;42977.81;5092125;28;20081;-66
2024/04/01 07:12:53;;;;;;;15.95;9.07;;;;;;;-146.27;90.44;43029.53;5093624;28;20092;-66
2024/04/01 07:15:18;;;;;;;13.80;10.23;;;;;;;-146.27;90.51;43033.50;5085897;28;20039;-74
2024/04/01 07:17:44;;;;;;;13.10;9.20;;;;;;;-146.27;90.24;43053.41;5090275;28;20476;-73
2024/04/01 07:20:10;;;;;;;11.55;8.77;;;;;;;-146.27;89.99;42993.72;5092195;28;20063;-75
2024/04/01 07:22:36;;;;;;;11.05;7.80;;;;;;;-146.27;90.19;43029.53;5097016;28;20407;-74
2024/04/01 07:25:04;;;;;;;12.30;8.80;;;;;;;-146.27;90.31;43103.13;5101129;28;20020;-73
2024/04/01 07:27:34;;;;;;;11.80;8.55;;;;;;;-146.27;90.34;43093.19;5100947;28;20047;-71
2024/04/01 07:29:59;;;;;;;13.77;8.20;;;;;;;-146.27;89.71;43031.53;5086179;28;20176;-73
2024/04/01 07:32:25;;;;;;;13.30;8.05;;;;;;;-146.27;89.46;43023.56;5089236;28;20031;-74
2024/04/01 07:34:51;;;;;;;10.45;7.47;;;;;;;-146.27;89.59;43099.16;5085712;28;20027;-75
2024/04/01 07:37:16;;;;;;;10.15;8.55;;;;;;;-146.27;89.16;43113.06;5089067;28;20088;-74
2024/04/01 07:39:41;;;;;;;11.18;7.28;;;;;;;-146.27;89.17;43146.88;5089982;28;20031;-74
2024/04/01 07:42:07;;;;;;;10.57;7.80;;;;;;;-146.27;88.59;43041.47;5102811;28;20029;-73
2024/04/01 07:44:32;;;;;;;9.80;7.57;;;;;;;-146.27;88.43;43041.47;5087366;28;20085;-74
2024/04/01 07:46:57;;;;;;;11.20;8.20;;;;;;;-146.27;88.30;43001.69;5088003;28;20038;-74
2024/04/01 07:49:23;;;;;;;12.77;7.68;;;;;;;-146.27;87.74;43077.28;5091610;28;20397;-74
2024/04/01 07:51:50;;;;;;;10.20;7.55;;;;;;;-146.27;88.73;42957.94;5091657;28;20498;-75
2024/04/01 07:54:16;;;;;;;10.13;7.35;;;;;;;-146.27;88.40;43069.31;5100222;28;20047;-75
2024/04/01 07:56:41;;;;;;;11.50;7.05;;;;;;;-146.27;88.78;43045.44;5101746;28;20027;-75
2024/04/01 07:59:06;;;;;;;10.48;6.97;;;;;;;-146.27;87.83;43069.31;5090278;28;20273;-72
2024/04/01 08:01:32;;;;;;;8.73;7.22;;;;;;;-146.27;87.43;43025.56;5090738;28;20523;-76
2024/04/01 08:03:57;;;;;;;8.18;6.25;;;;;;;-146.27;87.55;43081.25;5090792;28;20028;-75
2024/04/01 08:06:22;;;;;;;9.40;6.85;;;;;;;-146.27;87.10;43039.47;5090854;28;20053;-71
2024/04/01 08:08:48;;;;;;;8.18;6.43;;;;;;;-146.27;86.62;43015.59;5099235;28;20020;-74
2024/04/01 08:11:13;;;;;;;9.05;6.13;;;;;;;-146.27;86.88;43063.34;5096009;28;20383;-72
2024/04/01 08:13:39;;;;;;;9.07;6.13;;;;;;;-146.27;86.54;43117.06;5093646;28;20539;-74
2024/04/01 08:16:05;;;;;;;7.10;5.63;;;;;;;-146.27;86.79;43117.06;5087115;28;20480;-75
2024/04/01 08:18:30;;;;;;;8.70;5.43;;;;;;;-146.27;85.94;43113.06;5086225;28;20110;-72
2024/04/01 08:20:56;;;;;;;8.60;6.05;;;;;;;-146.27;85.86;43125.00;5095686;28;20128;-75
2024/04/01 08:23:22;;;;;;;10.45;5.72;;;;;;;-146.27;85.97;43025.56;5086008;28;20059;-72
2024/04/01 08:25:47;;;;;;;9.32;5.30;;;;;;;-146.27;85.83;43140.91;5086370;28;20405;-66
2024/04/01 08:28:13;;;;;;;7.78;5.43;;;;;;;-146.27;85.31;43057.38;5088857;28;20067;-65
2024/04/01 08:30:38;;;;;;;9.05;5.18;;;;;;;-146.27;85.50;43121.03;5090300;28;20027;-65
2024/04/01 08:33:03;;;;;;;9.40;5.15;;;;;;;-146.27;85.20;43081.25;5088046;28;20039;-65
2024/04/01 08:35:29;;;;;;;11.05;4.95;;;;;;;-146.27;85.42;43117.06;5089799;28;20031;-65
2024/04/01 08:37:54;;;;;;;8.45;5.03;;;;;;;-146.27;84.71;43130.97;5089522;28;20472;-65
2024/04/01 08:40:20;;;;;;;6.70;4.75;;;;;;;-146.27;85.19;43081.25;5089278;28;20420;-65
2024/04/01 08:42:52;;;;;;;6.28;4.30;;;;;;;-146.27;85.14;43132.97;5090208;28;20020;-65
2024/04/01 08:45:18;;;;;;;7.07;4.05;;;;;;;-146.27;85.35;43117.06;5090099;28;20032;-65
2024/04/01 08:47:47;;;;;;;7.30;4.25;;;;;;;-146.27;84.75;43109.09;5090253;28;20023;-67
2024/04/01 08:50:23;;;;;;;5.70;4.32;;;;;;;-146.27;84.48;43051.41;5089943;28;20081;-66
2024/04/01 08:53:02;;;;;;;11.90;4.63;;;;;;;-146.27;84.97;43081.25;5086446;28;20028;-66
2024/04/01 08:55:28;;;;;;;6.35;3.97;;;;;;;-146.27;84.86;43093.19;5084294;28;20035;-65
2024/04/01 08:57:54;;;;;;;8.77;4.43;;;;;;;-146.27;84.57;43061.34;5096324;28;20868;-68
2024/04/01 09:00:21;;;;;;;6.53;4.90;;;;;;;-146.27;84.57;43061.34;5096455;28;20613;-68
2024/04/01 09:02:47;;;;;;;6.47;4.22;;;;;;;-146.27;84.44;43041.47;5096022;28;20026;-67
2024/04/01 09:05:12;;;;;;;9.75;4.65;;;;;;;-146.27;85.16;43160.81;5097788;28;20032;-66
2024/04/01 09:07:38;;;;;;;10.95;4.38;;;;;;;-146.27;85.24;43164.78;5090566;28;20042;-65
2024/04/01 09:10:04;;;;;;;11.77;4.80;;;;;;;-146.27;84.62;43125.00;5090203;28;20082;-65
2024/04/01 09:12:29;;;;;;;9.30;4.63;;;;;;;-146.27;85.40;43176.72;5091205;28;20032;-65
2024/04/01 09:14:55;;;;;;;10.68;4.45;;;;;;;-146.27;85.09;43216.50;5110183;28;20499;-64
2024/04/01 09:17:25;;;;;;;9.88;5.40;;;;;;;-146.27;85.70;43212.53;5075305;28;20032;-65
2024/04/01 09:19:50;;;;;;;12.38;5.72;;;;;;;-146.27;85.13;43089.19;5089119;28;20024;-68
2024/04/01 09:22:16;;;;;;;8.45;5.10;;;;;;;-146.27;84.40;43059.38;5090311;28;20039;-67
2024/04/01 09:24:41;;;;;;;7.60;4.95;;;;;;;-146.27;84.53;43136.94;5090370;28;20024;-67
2024/04/01 09:27:06;;;;;;;9.27;4.57;;;;;;;-146.27;84.10;43013.63;5089953;28;20241;-67
2024/04/01 09:29:32;;;;;;;6.00;4.20;;;;;;;-146.27;83.53;43097.16;5089504;28;20081;-66
2024/04/01 09:32:00;;;;;;;7.70;4.05;;;;;;;-146.27;83.54;43158.81;5090054;28;20058;-67
2024/04/01 09:34:28;;;;;;;9.77;3.97;;;;;;;-146.27;83.53;43134.94;5076920;28;20061;-66
2024/04/01 09:36:54;;;;;;;6.47;3.00;;;;;;;-146.27;83.30;43202.59;5089196;28;20058;-67
2024/04/01 09:39:19;;;;;;;6.70;3.15;;;;;;;-146.27;82.82;43234.41;5089229;28;20016;-67
2024/04/01 09:41:45;;;;;;;6.82;2.75;;;;;;;-146.27;82.11;43138.94;5095488;28;20031;-67
2024/04/01 09:44:10;;;;;;;10.07;3.08;;;;;;;-146.27;82.50;43160.81;5099512;28;20031;-66
2024/04/01 09:46:37;;;;;;;9.25;3.33;;;;;;;-146.27;81.98;43194.63;5089119;28;20604;-66
2024/04/01 09:49:05;;;;;;;16.10;3.03;;;;;;;-146.27;81.84;43164.78;5088925;28;20028;-67
2024/04/01 09:51:32;;;;;;;9.00;2.58;;;;;;;-146.27;81.53;43252.31;5090428;28;20995;-67
2024/04/01 09:53:58;;;;;;;7.35;2.60;;;;;;;-146.27;81.79;43196.63;5084602;28;20052;-65
2024/04/01 09:56:45;;;;;;;12.38;3.17;;;;;;;-146.27;82.20;43230.44;5089472;28;20063;-65
2024/04/01 09:59:56;;;;;;;10.65;2.40;;;;;;;-146.27;81.62;43099.16;5093026;28;20024;-64
2024/04/01 10:02:53;;;;;;;8.68;2.85;;;;;;;-146.27;81.42;43174.72;5091997;28;20032;-64
2024/04/01 10:05:56;;;;;;;8.15;2.75;;;;;;;-146.27;81.51;43248.34;5037590;28;20101;-67
2024/04/01 10:08:27;;;;;;;9.65;2.65;;;;;;;-146.27;80.97;43208.56;5092934;28;20169;-65
2024/04/01 10:11:21;;;;;;;9.40;2.03;;;;;;;-146.27;80.86;43190.66;5081705;28;20479;-65
2024/04/01 10:14:14;;;;;;;9.70;2.22;;;;;;;-146.27;81.06;43296.06;5091849;28;20035;-65
2024/04/01 10:17:04;;;;;;;13.95;2.42;;;;;;;-146.27;80.26;43188.66;5092520;28;20036;-65
2024/04/01 10:19:48;;;;;;;10.00;1.63;;;;;;;-146.27;80.36;43280.16;5089758;28;20032;-64
2024/04/01 10:22:37;;;;;;;8.98;2.42;;;;;;;-146.27;79.96;43284.13;5088059;28;20032;-66
2024/04/01 10:25:17;;;;;;;5.00;2.17;;;;;;;-146.27;79.72;43319.94;5090435;28;20054;-64
2024/04/01 10:28:01;;;;;;;12.82;2.00;;;;;;;-146.27;79.33;43260.25;5083440;28;20155;-65
2024/04/01 10:30:44;;;;;;;5.35;1.90;;;;;;;-146.27;79.59;43286.13;5097004;28;20111;-65
2024/04/01 10:33:26;;;;;;;12.40;2.42;;;;;;;-146.27;79.38;43244.34;5087704;28;20028;-65
2024/04/01 10:36:15;;;;;;;7.70;1.80;;;;;;;-146.27;79.28;43244.34;5086479;28;20024;-65
2024/04/01 10:39:38;;;;;;;11.85;2.65;;;;;;;-146.27;80.19;43431.34;5093213;28;20134;-65
2024/04/01 10:42:30;;;;;;;10.30;2.35;;;;;;;-146.27;80.02;43379.63;5092866;28;20016;-65
2024/04/01 10:45:04;;;;;;;7.88;2.65;;;;;;;-146.27;80.14;43272.19;5072848;28;20036;-74
2024/04/01 10:47:57;;;;;;;9.95;3.03;;;;;;;-146.27;80.18;43325.91;5093878;28;20361;-73
2024/04/01 10:51:04;;;;;;;6.18;2.20;;;;;;;-146.27;79.64;43421.38;5092529;28;20600;-74
2024/04/01 10:54:19;;;;;;;7.80;2.72;;;;;;;-146.27;79.57;43383.59;5078582;28;20048;-72
2024/04/01 10:57:03;;;;;;;6.63;1.98;;;;;;;-146.27;79.58;43431.34;5071477;28;20047;-71
2024/04/01 11:00:05;;;;;;;9.10;2.38;;;;;;;-146.27;79.36;43433.31;5089324;28;20067;-73
2024/04/01 11:03:11;;;;;;;8.90;2.20;;;;;;;-146.27;78.29;43327.91;5078781;28;20534;-73
2024/04/01 11:05:55;;;;;;;12.27;2.25;;;;;;;-146.27;78.57;43371.66;5076075;28;20117;-74
2024/04/01 11:08:41;;;;;;;7.55;1.75;;;;;;;-146.27;77.31;43349.78;5091867;28;20089;-70
2024/04/01 11:11:28;;;;;;;5.10;2.50;;;;;;;-146.27;78.02;43433.31;5074836;28;20038;-72
2024/04/01 11:13:55;;;;;;;8.45;2.05;;;;;;;-146.27;79.29;43471.13;5092203;28;20020;-74
2024/04/01 11:16:24;;;;;;;7.88;1.90;;;;;;;-146.27;78.16;43417.41;5086952;28;20098;-72